NCAR-RAP Real-Time Weather Data

Output produced by METARs form (24 January 2022  23:36 UTC)
found at http://weather.rap.ucar.edu/surface/
 
KATY 242253Z AUTO 33008KT 10SM CLR M18/M22 A3007 RMK AO2 SLP222 T11831217
KATY 242153Z AUTO 32010KT 10SM CLR M17/M21 A3004 RMK AO2 SLP210 T11721211
KATY 242053Z AUTO 33013KT 10SM CLR M17/M21 A3003 RMK AO2 SLP204 T11671206 53012
KATY 241953Z AUTO 33011KT 10SM CLR M16/M20 A3002 RMK AO2 SLP198 T11611200
KATY 241853Z AUTO 36012KT 10SM CLR M17/M21 A3001 RMK AO2 SLP192 T11671206
KATY 241753Z AUTO 35010KT 10SM CLR M17/M21 A3000 RMK AO2 SLP190 60000 T11721206 11122 21178 51039
KATY 241653Z AUTO 36012KT 10SM CLR M18/M21 A2997 RMK AO2 SLP181 T11781211
KATY 241603Z AUTO 35017KT 10SM FEW006 M18/M21 A2994 RMK AO2 T11781211
KATY 241553Z AUTO 35015KT 10SM CLR M18/M21 A2993 RMK AO2 SLP170 T11781211
KATY 241506Z AUTO 35012KT 10SM SCT006 M17/M20 A2989 RMK AO2 PRESRR T11721200
KATY 241453Z AUTO 35012KT 10SM BKN006 M17/M20 A2988 RMK AO2 SLP152 60000 T11721200 53023